createdAt,value
2023-01-18T00:04:19.424Z,96691.56
2023-01-18T00:10:22.584Z,96695.44
2023-01-18T00:16:25.888Z,96692.81
2023-01-18T00:22:27.834Z,96683.84
2023-01-18T00:28:30.116Z,96680.38
2023-01-18T00:34:32.072Z,96672.03
2023-01-18T00:40:33.998Z,96675.22
2023-01-18T00:46:35.875Z,96687.53
2023-01-18T00:52:38.431Z,96684.91
2023-01-18T00:58:40.573Z,96684.81
2023-01-18T01:05:00.925Z,96694.22
2023-01-18T01:11:12.504Z,96686.19
2023-01-18T01:17:33.114Z,96705.16
2023-01-18T01:23:53.291Z,96701.81
2023-01-18T01:29:55.151Z,96711.50
2023-01-18T01:36:03.136Z,96714.41
2023-01-18T01:42:05.049Z,96711.31
2023-01-18T01:48:09.839Z,96716.75
2023-01-18T01:54:29.745Z,96726.69
2023-01-18T02:00:33.650Z,96733.56
2023-01-18T02:06:39.517Z,96742.78
2023-01-18T02:12:44.844Z,96740.09
2023-01-18T02:19:29.327Z,96748.16
2023-01-18T02:25:43.549Z,96753.00
2023-01-18T02:32:36.821Z,96762.50
2023-01-18T02:38:49.947Z,96773.84
2023-01-18T02:45:10.558Z,96768.56
2023-01-18T02:51:12.618Z,96758.72
2023-01-18T02:57:16.032Z,96765.03
2023-01-18T03:03:20.167Z,96758.00
2023-01-18T03:09:27.025Z,96762.69
2023-01-18T03:15:49.191Z,96767.94
2023-01-18T03:21:53.220Z,96765.78
2023-01-18T03:28:15.480Z,96775.06
2023-01-18T03:34:52.735Z,96787.84
2023-01-18T03:40:55.054Z,96795.78
2023-01-18T03:46:57.430Z,96802.72
2023-01-18T03:53:07.592Z,96808.34
2023-01-18T03:59:09.809Z,96809.44
2023-01-18T04:05:12.026Z,96813.19
2023-01-18T04:11:13.916Z,96830.53
2023-01-18T04:17:16.042Z,96833.97
2023-01-18T04:23:17.944Z,96832.25
2023-01-18T04:29:19.833Z,96844.28
2023-01-18T04:35:21.692Z,96830.81
2023-01-18T04:41:24.154Z,96830.91
2023-01-18T04:47:29.092Z,96837.88
2023-01-18T04:53:31.039Z,96835.78
2023-01-18T04:59:32.965Z,96845.91
2023-01-18T05:05:34.887Z,96845.19
2023-01-18T05:11:36.787Z,96848.34
2023-01-18T05:17:38.680Z,96854.41
2023-01-18T05:23:40.905Z,96859.81
2023-01-18T05:29:43.945Z,96874.16
2023-01-18T05:35:54.393Z,96880.41
2023-01-18T05:41:57.616Z,96882.91
2023-01-18T05:48:01.240Z,96886.00
2023-01-18T05:54:03.231Z,96901.03
2023-01-18T06:00:06.411Z,96898.00
2023-01-18T06:06:08.843Z,96910.69
2023-01-18T06:12:10.798Z,96917.19
2023-01-18T06:18:12.810Z,96919.50
2023-01-18T06:24:14.741Z,96924.56
2023-01-18T06:30:17.875Z,96930.47
2023-01-18T06:36:19.770Z,96938.91
2023-01-18T06:42:21.653Z,96952.22
2023-01-18T06:48:24.913Z,96951.50
2023-01-18T06:54:26.809Z,96963.31
2023-01-18T07:00:28.983Z,96964.63
2023-01-18T07:06:32.150Z,96970.28
2023-01-18T07:12:34.174Z,96983.06
2023-01-18T07:18:36.125Z,96986.53
2023-01-18T07:24:38.023Z,96989.16
2023-01-18T07:30:39.891Z,97005.47
2023-01-18T07:36:42.056Z,97017.84
2023-01-18T07:42:44.439Z,97022.38
2023-01-18T07:48:48.214Z,97032.03
2023-01-18T07:54:50.442Z,97034.19
2023-01-18T08:00:52.808Z,97045.13
2023-01-18T08:06:58.389Z,97058.50
2023-01-18T08:13:00.594Z,97066.47
2023-01-18T08:19:02.699Z,97077.66
2023-01-18T08:25:05.155Z,97086.28
2023-01-18T08:31:15.833Z,97095.16
2023-01-18T08:37:17.741Z,97097.13
2023-01-18T08:43:19.676Z,97108.50
2023-01-18T08:49:21.662Z,97112.31
2023-01-18T08:55:25.993Z,97109.53
2023-01-18T09:01:28.616Z,97116.25
2023-01-18T09:07:30.579Z,97124.41
2023-01-18T09:13:32.999Z,97133.38
2023-01-18T09:19:34.893Z,97136.00
2023-01-18T09:25:37.783Z,97140.91
2023-01-18T09:31:39.724Z,97159.16
2023-01-18T09:37:41.600Z,97155.59
2023-01-18T09:43:54.479Z,97167.09
2023-01-18T09:50:00.071Z,97173.75
2023-01-18T09:56:28.946Z,97183.09
2023-01-18T10:02:40.921Z,97190.22
2023-01-18T10:09:06.379Z,97198.19
2023-01-18T10:15:23.272Z,97191.31
2023-01-18T10:22:04.884Z,97189.59
2023-01-18T10:28:39.636Z,97184.75
2023-01-18T10:34:48.172Z,97195.19
2023-01-18T10:41:00.576Z,97197.53
2023-01-18T10:47:02.851Z,97201.63
2023-01-18T10:53:24.813Z,97200.75
2023-01-18T10:59:39.920Z,97196.03
2023-01-18T11:05:46.114Z,97202.72
2023-01-18T11:12:06.349Z,97213.25
2023-01-18T11:18:12.020Z,97219.53
2023-01-18T11:24:24.832Z,97228.22
2023-01-18T11:30:27.344Z,97217.50
2023-01-18T11:36:44.259Z,97229.06
2023-01-18T11:42:48.713Z,97232.47
2023-01-18T11:49:01.631Z,97234.72
2023-01-18T11:55:17.802Z,97239.63
2023-01-18T12:01:59.619Z,97239.25
2023-01-18T12:08:39.707Z,97243.59
2023-01-18T12:14:59.384Z,97246.38
2023-01-18T12:21:09.905Z,97240.00
2023-01-18T12:27:47.087Z,97259.78
2023-01-18T12:34:10.539Z,97256.00
2023-01-18T12:40:37.301Z,97258.44
2023-01-18T12:46:59.738Z,97273.41
2023-01-18T12:53:11.373Z,97287.09
2023-01-18T12:59:28.752Z,97289.38
2023-01-18T13:05:51.133Z,97296.25
2023-01-18T13:11:53.495Z,97298.63
2023-01-18T13:18:24.548Z,97311.63
2023-01-18T13:25:08.861Z,97309.81
2023-01-18T13:31:10.851Z,97320.06
2023-01-18T13:37:43.153Z,97326.34
2023-01-18T13:43:44.935Z,97328.41
2023-01-18T13:49:47.153Z,97341.31
2023-01-18T13:56:33.172Z,97344.34
2023-01-18T14:02:45.324Z,97351.91
2023-01-18T14:09:01.116Z,97362.38
2023-01-18T14:15:03.285Z,97368.28
2023-01-18T14:21:27.897Z,97378.28
2023-01-18T14:27:38.483Z,97373.41
2023-01-18T14:33:41.574Z,97383.59
2023-01-18T14:39:43.450Z,97399.66
2023-01-18T14:46:15.905Z,97410.59
2023-01-18T14:52:18.927Z,97420.19
2023-01-18T14:58:20.800Z,97431.75
2023-01-18T15:04:29.870Z,97429.06
2023-01-18T15:10:32.819Z,97428.16
2023-01-18T15:16:35.298Z,97433.28
2023-01-18T15:22:40.457Z,97451.00
2023-01-18T15:28:42.387Z,97457.03
2023-01-18T15:34:47.902Z,97461.88
2023-01-18T15:41:14.587Z,97473.03
2023-01-18T15:47:58.517Z,97479.81
2023-01-18T15:54:00.765Z,97487.97
2023-01-18T16:00:05.884Z,97490.66
2023-01-18T16:06:15.074Z,97509.66
2023-01-18T16:12:33.918Z,97521.94
2023-01-18T16:18:35.918Z,97526.75
2023-01-18T16:24:58.397Z,97530.06
2023-01-18T16:31:03.383Z,97536.94
2023-01-18T16:37:07.690Z,97541.38
2023-01-18T16:43:27.486Z,97552.50
2023-01-18T16:49:29.499Z,97562.75
2023-01-18T16:55:31.376Z,97573.81
2023-01-18T17:01:33.461Z,97573.38
2023-01-18T17:07:35.469Z,97592.25
2023-01-18T17:13:37.482Z,97604.44
2023-01-18T17:19:41.695Z,97597.06
2023-01-18T17:25:44.405Z,97607.97
2023-01-18T17:31:52.332Z,97614.34
2023-01-18T17:38:01.168Z,97620.44
2023-01-18T17:44:09.512Z,97627.38
2023-01-18T17:50:17.197Z,97636.38
2023-01-18T17:56:19.245Z,97639.03
2023-01-18T18:02:22.720Z,97636.22
2023-01-18T18:08:24.836Z,97630.63
2023-01-18T18:14:26.750Z,97647.53
2023-01-18T18:20:28.648Z,97659.72
2023-01-18T18:26:30.698Z,97663.34
2023-01-18T18:32:32.596Z,97658.59
2023-01-18T18:38:34.549Z,97659.72
2023-01-18T18:44:36.611Z,97669.75
2023-01-18T18:50:39.231Z,97679.75
2023-01-18T18:56:41.604Z,97681.88
2023-01-18T19:02:43.565Z,97683.38
2023-01-18T19:08:45.783Z,97695.03
2023-01-18T19:14:48.882Z,97699.13
2023-01-18T19:20:51.314Z,97708.50
2023-01-18T19:26:53.231Z,97721.81
2023-01-18T19:32:55.511Z,97717.53
2023-01-18T19:39:00.212Z,97730.97
2023-01-18T19:45:03.988Z,97731.84
2023-01-18T19:51:22.490Z,97747.25
2023-01-18T19:57:26.605Z,97745.97
2023-01-18T20:03:29.615Z,97753.00
2023-01-18T20:09:42.750Z,97745.00
2023-01-18T20:15:50.633Z,97745.63
2023-01-18T20:21:52.713Z,97746.91
2023-01-18T20:27:55.712Z,97762.00
2023-01-18T20:33:57.595Z,97760.06
2023-01-18T20:39:59.527Z,97758.53
2023-01-18T20:46:11.224Z,97776.75
2023-01-18T20:52:13.414Z,97781.28
2023-01-18T20:58:15.317Z,97786.53
2023-01-18T21:04:17.289Z,97783.28
2023-01-18T21:10:19.242Z,97796.53
2023-01-18T21:16:22.086Z,97793.25
2023-01-18T21:22:24.016Z,97803.03
2023-01-18T21:28:26.532Z,97794.78
2023-01-18T21:34:28.417Z,97801.84
2023-01-18T21:40:30.712Z,97804.88
2023-01-18T21:46:32.695Z,97804.53
2023-01-18T21:52:53.481Z,97807.06
2023-01-18T21:58:57.886Z,97812.47
2023-01-18T22:05:09.853Z,97814.75
2023-01-18T22:11:11.726Z,97813.75
2023-01-18T22:17:13.648Z,97829.50
2023-01-18T22:23:15.741Z,97838.28
2023-01-18T22:29:17.663Z,97851.88
2023-01-18T22:35:19.628Z,97852.53
2023-01-18T22:41:25.202Z,97852.16
2023-01-18T22:47:27.461Z,97857.13
2023-01-18T22:53:38.595Z,97858.56
2023-01-18T22:59:40.539Z,97859.03
2023-01-18T23:05:42.649Z,97866.88
2023-01-18T23:11:45.431Z,97861.91
2023-01-18T23:17:47.355Z,97868.88
2023-01-18T23:23:49.373Z,97876.94
2023-01-18T23:30:00.596Z,97867.41
2023-01-18T23:36:03.045Z,97863.19
2023-01-18T23:42:23.886Z,97854.41
2023-01-18T23:48:44.892Z,97851.56
2023-01-18T23:54:47.140Z,97858.00
